createdAt,value
2018-05-21T00:02:04.868Z,88.40
2018-05-21T00:12:06.987Z,90.00
2018-05-21T00:22:09.102Z,88.80
2018-05-21T00:32:10.457Z,88.70
2018-05-21T00:42:11.814Z,89.20
2018-05-21T00:52:13.183Z,89.70
2018-05-21T01:02:15.274Z,88.40
2018-05-21T01:12:16.594Z,88.40
2018-05-21T01:32:25.399Z,86.90
2018-05-21T01:42:26.789Z,87.20
2018-05-21T01:52:28.114Z,87.70
2018-05-21T02:02:29.462Z,88.50
2018-05-21T02:12:30.826Z,89.00
2018-05-21T02:22:32.997Z,89.60
2018-05-21T02:32:34.413Z,89.60
2018-05-21T02:42:35.802Z,89.40
2018-05-21T02:52:37.160Z,89.80
2018-05-21T03:02:38.477Z,89.10
2018-05-21T03:12:39.797Z,90.20
2018-05-21T03:22:41.118Z,91.00
2018-05-21T03:32:43.211Z,91.50
2018-05-21T03:42:44.533Z,91.60
2018-05-21T03:52:46.678Z,91.00
2018-05-21T04:02:48.058Z,91.00
2018-05-21T04:12:50.174Z,91.00
2018-05-21T04:22:51.560Z,91.00
2018-05-21T04:32:53.695Z,91.20
2018-05-21T04:42:55.052Z,91.20
2018-05-21T04:52:56.405Z,90.90
2018-05-21T05:02:57.733Z,90.60
2018-05-21T05:12:59.058Z,90.50
2018-05-21T05:23:00.377Z,90.20
2018-05-21T05:33:01.701Z,90.10
2018-05-21T05:43:03.069Z,87.90
2018-05-21T05:53:05.286Z,82.00
2018-05-21T06:03:06.658Z,81.90
2018-05-21T06:13:08.014Z,81.90
2018-05-21T06:23:09.407Z,82.60
2018-05-21T06:33:12.714Z,82.40
2018-05-21T06:43:17.468Z,78.90
2018-05-21T06:53:19.002Z,76.40
2018-05-21T07:03:20.333Z,73.70
2018-05-21T07:13:21.680Z,69.80
2018-05-21T07:23:23.008Z,62.20
2018-05-21T07:33:25.473Z,56.40
2018-05-21T07:43:28.003Z,54.10
2018-05-21T07:53:29.471Z,50.30
2018-05-21T08:03:30.824Z,54.50
2018-05-21T08:13:32.178Z,53.70
2018-05-21T08:23:33.532Z,57.90
2018-05-21T08:33:35.640Z,58.10
2018-05-21T08:43:36.973Z,58.10
2018-05-21T08:53:38.284Z,59.20
2018-05-21T09:03:39.625Z,65.00
2018-05-21T09:13:40.935Z,63.80
2018-05-21T09:23:43.068Z,62.50
2018-05-21T09:33:44.402Z,62.50
2018-05-21T09:43:45.757Z,56.30
2018-05-21T09:53:47.110Z,47.90
2018-05-21T10:03:48.506Z,36.60
2018-05-21T10:13:49.854Z,32.00
2018-05-21T10:23:51.975Z,36.80
2018-05-21T10:33:58.749Z,42.00
2018-05-21T10:44:00.075Z,42.00
2018-05-21T10:54:01.391Z,49.90
2018-05-21T11:04:03.469Z,49.70
2018-05-21T11:14:04.794Z,49.70
2018-05-21T11:24:06.165Z,45.80
2018-05-21T11:34:07.540Z,46.50
2018-05-21T11:44:08.895Z,45.50
2018-05-21T11:54:11.017Z,49.20
2018-05-21T12:04:13.149Z,54.00
2018-05-21T12:14:14.498Z,53.90
2018-05-21T12:24:15.807Z,50.90
2018-05-21T12:34:19.931Z,48.40
2018-05-21T12:44:21.255Z,48.30
2018-05-21T12:54:22.623Z,48.70
2018-05-21T13:04:24.039Z,50.90
2018-05-21T13:14:25.430Z,52.20
2018-05-21T13:34:33.201Z,55.20
2018-05-21T13:44:34.576Z,56.50
2018-05-21T13:54:35.993Z,59.00
2018-05-21T14:04:37.341Z,59.30
2018-05-21T14:14:39.254Z,60.80
2018-05-21T14:24:41.421Z,67.40
2018-05-21T14:34:43.767Z,67.40
2018-05-21T14:44:45.544Z,69.30
2018-05-21T14:54:46.938Z,66.10
2018-05-21T15:04:49.057Z,65.10
2018-05-21T15:14:51.175Z,58.90
2018-05-21T15:24:53.409Z,58.70
2018-05-21T15:34:54.765Z,58.70
2018-05-21T15:44:56.129Z,58.60
2018-05-21T15:54:57.556Z,62.70
2018-05-21T16:15:05.542Z,71.40
2018-05-21T16:25:07.397Z,70.00
2018-05-21T16:35:09.751Z,73.20
2018-05-21T16:45:12.185Z,73.20
2018-05-21T16:55:13.708Z,76.20
2018-05-21T17:05:15.957Z,76.00
2018-05-21T17:15:17.453Z,74.30
2018-05-21T17:55:44.519Z,82.70
2018-05-21T18:05:45.926Z,83.70
2018-05-21T18:15:47.586Z,86.20
2018-05-21T18:25:49.786Z,86.40
2018-05-21T18:35:51.182Z,86.40
2018-05-21T18:45:52.507Z,88.40
2018-05-21T18:55:54.765Z,88.50
2018-05-21T19:05:56.260Z,88.50
2018-05-21T19:15:57.633Z,88.90
2018-05-21T19:25:59.001Z,87.40
2018-05-21T19:36:00.444Z,86.30
2018-05-21T19:56:08.913Z,89.60
2018-05-21T20:06:10.645Z,90.30
2018-05-21T20:16:11.968Z,90.50
2018-05-21T20:26:13.311Z,90.20
2018-05-21T20:36:14.671Z,89.70
2018-05-21T20:46:16.762Z,90.50
2018-05-21T20:56:18.873Z,90.40
2018-05-21T21:06:24.972Z,90.40
2018-05-21T21:26:32.927Z,90.50
2018-05-21T21:36:34.296Z,90.70
2018-05-21T21:46:36.422Z,90.70
2018-05-21T21:56:37.863Z,90.70
2018-05-21T22:06:39.239Z,90.60
2018-05-21T22:16:40.578Z,90.60
2018-05-21T22:26:41.917Z,90.40
2018-05-21T22:36:43.267Z,90.60
2018-05-21T22:46:44.621Z,90.50
2018-05-21T22:56:45.964Z,90.70
2018-05-21T23:06:47.312Z,90.70
2018-05-21T23:16:48.665Z,90.60
2018-05-21T23:26:50.045Z,90.50
2018-05-21T23:36:51.430Z,90.70
2018-05-21T23:46:52.800Z,90.80
2018-05-21T23:56:54.167Z,90.80
